createdAt,value
2019-02-25T00:02:05.397Z,12.70
2019-02-25T00:04:46.595Z,12.60
2019-02-25T00:07:36.053Z,12.40
2019-02-25T00:10:14.166Z,12.60
2019-02-25T00:13:16.665Z,12.60
2019-02-25T00:15:59.394Z,12.60
2019-02-25T00:18:40.597Z,12.60
2019-02-25T00:21:23.017Z,12.60
2019-02-25T00:24:04.800Z,12.70
2019-02-25T00:26:46.847Z,12.60
2019-02-25T00:29:42.672Z,12.60
2019-02-25T00:32:26.929Z,12.60
2019-02-25T00:35:29.178Z,12.50
2019-02-25T00:38:13.471Z,12.50
2019-02-25T00:40:56.470Z,12.50
2019-02-25T00:43:39.378Z,12.60
2019-02-25T00:46:19.111Z,12.60
2019-02-25T00:49:00.637Z,12.60
2019-02-25T00:52:03.450Z,12.70
2019-02-25T00:54:46.753Z,12.70
2019-02-25T00:57:42.105Z,12.80
2019-02-25T01:00:31.538Z,12.80
2019-02-25T01:03:12.460Z,12.80
2019-02-25T01:05:55.417Z,12.80
2019-02-25T01:08:34.456Z,13.00
2019-02-25T01:11:24.322Z,13.10
2019-02-25T01:14:21.015Z,13.10
2019-02-25T01:17:02.950Z,12.90
2019-02-25T01:20:07.830Z,12.70
2019-02-25T01:22:49.781Z,12.60
2019-02-25T01:25:33.975Z,12.50
2019-02-25T01:28:14.692Z,12.60
2019-02-25T01:30:56.305Z,12.80
2019-02-25T01:33:36.670Z,13.00
2019-02-25T01:36:40.397Z,13.00
2019-02-25T01:39:24.889Z,13.00
2019-02-25T01:42:28.149Z,12.80
2019-02-25T01:45:10.730Z,12.70
2019-02-25T01:47:53.428Z,12.80
2019-02-25T01:50:36.028Z,12.80
2019-02-25T01:53:15.013Z,12.80
2019-02-25T01:55:57.743Z,12.70
2019-02-25T01:58:48.322Z,12.80
2019-02-25T02:01:30.870Z,12.80
2019-02-25T02:04:14.942Z,12.80
2019-02-25T02:06:53.063Z,12.80
2019-02-25T02:09:36.447Z,12.70
2019-02-25T02:12:19.417Z,12.70
2019-02-25T02:15:01.328Z,12.80
2019-02-25T02:17:43.465Z,12.90
2019-02-25T02:21:01.196Z,12.80
2019-02-25T02:23:45.272Z,12.80
2019-02-25T02:26:53.661Z,12.70
2019-02-25T02:29:36.104Z,12.90
2019-02-25T02:32:19.625Z,12.80
2019-02-25T02:35:04.048Z,12.90
2019-02-25T02:37:52.478Z,12.90
2019-02-25T02:40:35.804Z,13.00
2019-02-25T02:43:18.627Z,13.00
2019-02-25T02:46:04.150Z,13.10
2019-02-25T02:49:09.024Z,13.10
2019-02-25T02:51:50.533Z,13.10
2019-02-25T02:54:32.964Z,13.00
2019-02-25T02:57:15.386Z,13.10
2019-02-25T03:00:04.921Z,13.20
2019-02-25T03:02:48.914Z,13.30
2019-02-25T03:05:37.547Z,13.20
2019-02-25T03:08:15.855Z,13.30
2019-02-25T03:11:46.778Z,13.30
2019-02-25T03:14:30.154Z,13.20
2019-02-25T03:17:08.818Z,13.30
2019-02-25T03:19:51.591Z,13.40
2019-02-25T03:22:34.015Z,13.30
2019-02-25T03:25:17.249Z,13.40
2019-02-25T03:28:02.037Z,13.50
2019-02-25T03:30:45.133Z,13.40
2019-02-25T03:33:26.536Z,13.40
2019-02-25T03:36:14.962Z,13.40
2019-02-25T03:38:58.973Z,13.70
2019-02-25T03:41:39.755Z,13.80
2019-02-25T03:44:22.267Z,13.80
2019-02-25T03:47:04.063Z,13.80
2019-02-25T03:49:47.967Z,13.70
2019-02-25T03:52:33.403Z,13.60
2019-02-25T03:55:15.605Z,13.60
2019-02-25T03:57:55.958Z,13.70
2019-02-25T04:00:38.895Z,13.70
2019-02-25T04:03:21.870Z,13.70
2019-02-25T04:06:02.128Z,13.60
2019-02-25T04:08:50.606Z,13.70
2019-02-25T04:11:31.726Z,13.80
2019-02-25T04:14:14.652Z,13.90
2019-02-25T04:16:56.201Z,13.90
2019-02-25T04:19:51.285Z,13.90
2019-02-25T04:22:34.425Z,13.90
2019-02-25T04:25:18.231Z,13.80
2019-02-25T04:28:08.517Z,13.80
2019-02-25T04:30:56.014Z,13.90
2019-02-25T04:33:40.349Z,13.90
2019-02-25T04:36:22.406Z,13.90
2019-02-25T04:42:41.577Z,13.90
2019-02-25T04:45:41.186Z,13.90
2019-02-25T04:48:23.909Z,14.10
2019-02-25T04:51:16.319Z,14.20
2019-02-25T04:54:08.791Z,14.20
2019-02-25T04:56:57.616Z,14.20
2019-02-25T05:00:02.167Z,14.30
2019-02-25T05:03:05.340Z,14.40
2019-02-25T05:06:13.079Z,14.50
2019-02-25T05:09:01.930Z,14.50
2019-02-25T05:11:50.877Z,14.50
2019-02-25T05:14:39.408Z,14.30
2019-02-25T05:17:25.611Z,14.20
2019-02-25T05:20:39.093Z,14.30
2019-02-25T05:23:25.977Z,14.30
2019-02-25T05:26:18.587Z,14.30
2019-02-25T05:29:04.572Z,14.30
2019-02-25T05:31:56.431Z,14.30
2019-02-25T05:34:41.418Z,14.50
2019-02-25T05:37:34.922Z,14.60
2019-02-25T05:40:24.752Z,14.60
2019-02-25T05:43:05.484Z,14.60
2019-02-25T05:45:53.321Z,14.50
2019-02-25T05:48:39.134Z,14.50
2019-02-25T05:51:34.181Z,14.50
2019-02-25T05:54:17.659Z,14.50
2019-02-25T05:57:02.880Z,14.50
2019-02-25T06:00:04.985Z,14.50
2019-02-25T06:02:54.908Z,14.60
2019-02-25T06:05:45.698Z,14.60
2019-02-25T06:08:31.002Z,14.70
2019-02-25T06:11:19.685Z,14.60
2019-02-25T06:14:14.761Z,14.60
2019-02-25T06:17:08.522Z,14.70
2019-02-25T06:19:53.346Z,14.80
2019-02-25T06:22:54.781Z,14.70
2019-02-25T06:25:38.535Z,14.60
2019-02-25T06:28:31.514Z,14.40
2019-02-25T06:31:21.511Z,14.40
2019-02-25T06:34:10.941Z,14.40
2019-02-25T06:37:07.264Z,14.30
2019-02-25T06:40:00.396Z,14.50
2019-02-25T06:42:53.693Z,14.50
2019-02-25T06:45:39.097Z,14.50
2019-02-25T06:48:23.431Z,14.60
2019-02-25T06:51:07.892Z,14.70
2019-02-25T06:54:05.842Z,14.70
2019-02-25T06:56:58.743Z,14.70
2019-02-25T06:59:44.132Z,14.80
2019-02-25T07:02:45.050Z,14.80
2019-02-25T07:05:47.881Z,14.90
2019-02-25T07:09:05.027Z,14.80
2019-02-25T07:12:09.701Z,14.80
2019-02-25T07:15:19.479Z,14.80
2019-02-25T07:22:00.029Z,14.80
2019-02-25T07:25:04.871Z,14.90
2019-02-25T07:27:58.952Z,15.00
2019-02-25T07:31:06.752Z,14.80
2019-02-25T07:34:10.959Z,14.80
2019-02-25T07:37:15.699Z,14.80
2019-02-25T07:40:31.549Z,14.80
2019-02-25T07:43:44.076Z,14.80
2019-02-25T07:46:45.901Z,14.90
2019-02-25T07:49:37.658Z,14.80
2019-02-25T07:52:58.571Z,14.80
2019-02-25T07:55:49.798Z,14.80
2019-02-25T07:58:49.302Z,14.70
2019-02-25T08:01:51.870Z,14.70
2019-02-25T08:05:09.242Z,14.60
2019-02-25T08:08:13.465Z,14.50
2019-02-25T08:14:23.166Z,14.50
2019-02-25T08:17:19.494Z,14.50
2019-02-25T08:20:19.203Z,14.40
2019-02-25T08:23:24.886Z,14.50
2019-02-25T08:26:36.396Z,14.50
2019-02-25T08:30:01.352Z,14.30
2019-02-25T08:33:12.079Z,14.30
2019-02-25T08:37:01.975Z,14.30
2019-02-25T08:39:43.606Z,14.40
2019-02-25T08:42:37.006Z,14.40
2019-02-25T08:45:31.279Z,14.40
2019-02-25T08:48:25.233Z,14.40
2019-02-25T08:51:13.609Z,14.40
2019-02-25T08:53:55.735Z,14.40
2019-02-25T08:56:38.376Z,14.30
2019-02-25T08:59:23.308Z,14.30
2019-02-25T09:02:05.689Z,14.30
2019-02-25T09:05:00.411Z,14.30
2019-02-25T09:07:42.808Z,14.20
2019-02-25T09:10:24.056Z,14.30
2019-02-25T09:13:07.047Z,14.30
2019-02-25T09:15:47.264Z,14.40
2019-02-25T09:18:31.106Z,14.40
2019-02-25T09:21:15.574Z,14.30
2019-02-25T09:23:59.816Z,14.30
2019-02-25T09:26:48.142Z,14.30
2019-02-25T09:29:36.863Z,14.40
2019-02-25T09:32:25.612Z,14.30
2019-02-25T09:35:06.679Z,14.30
2019-02-25T09:38:00.543Z,14.20
2019-02-25T09:40:40.782Z,14.10
2019-02-25T09:43:25.312Z,14.20
2019-02-25T09:46:10.212Z,14.20
2019-02-25T09:48:57.033Z,14.20
2019-02-25T09:51:39.229Z,14.10
2019-02-25T09:54:22.695Z,14.10
2019-02-25T09:57:10.056Z,14.00
2019-02-25T09:59:55.423Z,14.00
2019-02-25T10:02:47.568Z,14.00
2019-02-25T10:05:33.277Z,14.00
2019-02-25T10:08:18.363Z,13.90
2019-02-25T10:10:59.403Z,13.90
2019-02-25T10:13:45.500Z,14.00
2019-02-25T10:16:35.392Z,14.10
2019-02-25T10:19:28.598Z,14.20
2019-02-25T10:22:09.911Z,14.10
2019-02-25T10:24:51.383Z,14.10
2019-02-25T10:27:37.459Z,14.00
2019-02-25T10:30:26.102Z,14.00
2019-02-25T10:33:11.048Z,14.00
2019-02-25T10:35:50.327Z,14.00
2019-02-25T10:38:39.516Z,14.00
2019-02-25T10:41:35.754Z,14.00
2019-02-25T10:44:23.879Z,13.90
2019-02-25T10:47:13.561Z,13.90
2019-02-25T10:49:52.086Z,13.90
2019-02-25T10:52:44.899Z,13.90
2019-02-25T10:55:40.060Z,13.90
2019-02-25T10:58:28.976Z,14.00
2019-02-25T11:01:17.492Z,14.00
2019-02-25T11:03:57.860Z,14.00
2019-02-25T11:06:41.571Z,14.00
2019-02-25T11:09:59.628Z,13.90
2019-02-25T11:12:53.819Z,13.90
2019-02-25T11:15:37.536Z,13.80
2019-02-25T11:18:20.356Z,13.90
2019-02-25T11:21:14.490Z,14.00
2019-02-25T11:24:01.832Z,13.90
2019-02-25T11:26:43.890Z,13.90
2019-02-25T11:29:27.490Z,13.90
2019-02-25T11:32:14.321Z,14.00
2019-02-25T11:35:01.303Z,13.90
2019-02-25T11:38:17.979Z,13.90
2019-02-25T11:41:07.100Z,13.80
2019-02-25T11:43:57.210Z,13.80
2019-02-25T11:46:53.431Z,13.80
2019-02-25T11:49:54.394Z,13.80
2019-02-25T11:52:42.326Z,13.80
2019-02-25T11:55:26.331Z,13.80
2019-02-25T11:58:21.667Z,13.80
2019-02-25T12:01:35.843Z,13.80
2019-02-25T12:04:26.035Z,13.80
2019-02-25T12:07:23.483Z,13.90
2019-02-25T12:10:18.079Z,13.90
2019-02-25T12:13:29.905Z,13.90
2019-02-25T12:16:49.283Z,14.00
2019-02-25T12:19:41.287Z,13.90
2019-02-25T12:22:31.299Z,13.90
2019-02-25T12:25:15.685Z,13.80
2019-02-25T12:28:16.641Z,13.70
2019-02-25T12:31:05.872Z,13.80
2019-02-25T12:33:57.539Z,13.80
2019-02-25T12:36:52.702Z,13.70
2019-02-25T12:39:40.440Z,13.80
2019-02-25T12:42:40.495Z,13.70
2019-02-25T12:45:26.913Z,13.80
2019-02-25T12:48:33.790Z,13.80
2019-02-25T12:51:30.707Z,13.80
2019-02-25T12:54:38.588Z,13.80
2019-02-25T12:57:37.865Z,13.80
2019-02-25T13:00:41.713Z,13.80
2019-02-25T13:04:15.721Z,13.70
2019-02-25T13:07:11.523Z,13.70
2019-02-25T13:10:23.283Z,13.60
2019-02-25T13:13:51.285Z,13.60
2019-02-25T13:16:38.916Z,13.60
2019-02-25T13:19:36.236Z,13.60
2019-02-25T13:23:06.559Z,13.50
2019-02-25T13:26:12.275Z,13.50
2019-02-25T13:29:19.035Z,13.50
2019-02-25T13:32:34.442Z,13.60
2019-02-25T13:35:29.680Z,13.60
2019-02-25T13:38:18.879Z,13.60
2019-02-25T13:41:31.216Z,13.60
2019-02-25T13:44:47.653Z,13.50
2019-02-25T13:47:55.138Z,13.60
2019-02-25T13:51:20.060Z,13.50
2019-02-25T13:57:24.093Z,13.20
2019-02-25T14:00:36.270Z,13.20
2019-02-25T14:03:42.369Z,13.20
2019-02-25T14:06:34.226Z,13.10
2019-02-25T14:10:09.353Z,13.20
2019-02-25T14:13:01.792Z,13.10
2019-02-25T14:19:23.166Z,13.10
2019-02-25T14:22:35.735Z,13.10
2019-02-25T14:26:03.961Z,13.00
2019-02-25T14:29:17.453Z,13.00
2019-02-25T14:32:17.658Z,12.90
2019-02-25T14:35:38.580Z,12.90
2019-02-25T14:39:13.035Z,13.00
2019-02-25T14:42:28.954Z,12.90
2019-02-25T14:46:04.774Z,12.90
2019-02-25T14:49:08.229Z,12.90
2019-02-25T14:52:24.383Z,12.80
2019-02-25T14:55:40.685Z,12.80
2019-02-25T14:59:00.604Z,12.80
2019-02-25T15:02:08.238Z,12.80
2019-02-25T15:05:12.730Z,12.70
2019-02-25T15:07:59.242Z,12.70
2019-02-25T15:11:17.900Z,12.60
2019-02-25T15:14:25.788Z,12.70
2019-02-25T15:17:48.217Z,12.70
2019-02-25T15:21:00.390Z,12.80
2019-02-25T15:24:33.102Z,12.80
2019-02-25T15:27:23.170Z,12.80
2019-02-25T15:30:16.677Z,12.80
2019-02-25T15:33:06.187Z,12.80
2019-02-25T15:39:04.362Z,12.70
2019-02-25T15:42:05.382Z,12.70
2019-02-25T15:44:57.570Z,12.70
2019-02-25T15:47:44.904Z,12.70
2019-02-25T15:50:33.603Z,12.70
2019-02-25T15:53:16.255Z,12.70
2019-02-25T15:56:05.923Z,12.70
2019-02-25T15:59:12.166Z,12.70
2019-02-25T16:02:14.198Z,12.70
2019-02-25T16:04:59.441Z,12.70
2019-02-25T16:07:51.888Z,12.70
2019-02-25T16:11:00.308Z,12.70
2019-02-25T16:14:04.144Z,12.70
2019-02-25T16:17:00.625Z,12.60
2019-02-25T16:19:53.157Z,12.60
2019-02-25T16:22:44.101Z,12.70
2019-02-25T16:28:55.147Z,12.70
2019-02-25T16:31:41.120Z,12.70
2019-02-25T16:34:42.672Z,12.50
2019-02-25T16:37:42.687Z,12.50
2019-02-25T16:40:28.725Z,12.50
2019-02-25T16:43:28.105Z,12.50
2019-02-25T16:46:15.695Z,12.50
2019-02-25T16:48:59.750Z,12.60
2019-02-25T16:51:41.868Z,12.50
2019-02-25T16:54:30.096Z,12.50
2019-02-25T16:57:16.433Z,12.50
2019-02-25T17:00:07.681Z,12.50
2019-02-25T17:02:49.645Z,12.50
2019-02-25T17:05:32.168Z,12.50
2019-02-25T17:08:42.764Z,12.40
2019-02-25T17:11:31.748Z,12.50
2019-02-25T17:14:18.920Z,12.40
2019-02-25T17:17:07.774Z,12.40
2019-02-25T17:19:56.527Z,12.40
2019-02-25T17:22:49.830Z,12.40
2019-02-25T17:25:31.658Z,12.40
2019-02-25T17:28:19.845Z,12.30
2019-02-25T17:31:16.229Z,12.40
2019-02-25T17:34:16.510Z,12.40
2019-02-25T17:37:05.949Z,12.30
2019-02-25T17:39:54.516Z,12.30
2019-02-25T17:42:36.012Z,12.30
2019-02-25T17:45:22.462Z,12.20
2019-02-25T17:48:05.469Z,12.30
2019-02-25T17:50:44.064Z,12.30
2019-02-25T17:53:32.603Z,12.30
2019-02-25T17:56:12.579Z,12.20
2019-02-25T17:58:56.204Z,12.30
2019-02-25T18:01:37.407Z,12.20
2019-02-25T18:04:26.582Z,12.20
2019-02-25T18:07:15.836Z,12.20
2019-02-25T18:10:01.194Z,12.20
2019-02-25T18:12:44.395Z,12.20
2019-02-25T18:15:28.389Z,12.20
2019-02-25T18:18:14.663Z,12.20
2019-02-25T18:21:18.091Z,12.20
2019-02-25T18:23:56.388Z,12.20
2019-02-25T18:26:37.312Z,12.20
2019-02-25T18:29:19.003Z,12.20
2019-02-25T18:32:03.698Z,12.10
2019-02-25T18:34:46.125Z,12.10
2019-02-25T18:37:28.839Z,12.20
2019-02-25T18:40:27.379Z,12.10
2019-02-25T18:43:09.383Z,12.10
2019-02-25T18:46:05.456Z,12.10
2019-02-25T18:48:49.210Z,12.10
2019-02-25T18:51:32.503Z,12.10
2019-02-25T18:54:16.899Z,12.10
2019-02-25T18:57:13.015Z,12.10
2019-02-25T18:59:59.157Z,12.10
2019-02-25T19:02:38.055Z,12.20
2019-02-25T19:05:31.315Z,12.10
2019-02-25T19:08:29.984Z,12.10
2019-02-25T19:11:12.916Z,12.10
2019-02-25T19:13:54.340Z,12.10
2019-02-25T19:16:36.447Z,12.10
2019-02-25T19:19:19.247Z,12.10
2019-02-25T19:22:05.275Z,12.10
2019-02-25T19:24:51.221Z,12.10
2019-02-25T19:27:31.660Z,12.10
2019-02-25T19:30:12.519Z,12.10
2019-02-25T19:32:50.518Z,12.20
2019-02-25T19:35:33.026Z,12.10
2019-02-25T19:38:17.564Z,12.10
2019-02-25T19:40:58.437Z,12.10
2019-02-25T19:43:41.593Z,12.10
2019-02-25T19:46:27.620Z,12.10
2019-02-25T19:49:11.489Z,12.10
2019-02-25T19:51:52.614Z,12.10
2019-02-25T19:54:40.814Z,12.10
2019-02-25T19:57:14.020Z,12.10
2019-02-25T20:00:00.222Z,12.10
2019-02-25T20:02:48.041Z,12.10
2019-02-25T20:05:33.494Z,12.10
2019-02-25T20:08:18.847Z,12.10
2019-02-25T20:11:00.878Z,12.10
2019-02-25T20:13:43.115Z,12.10
2019-02-25T20:16:35.501Z,12.00
2019-02-25T20:19:17.840Z,12.00
2019-02-25T20:21:58.455Z,12.00
2019-02-25T20:24:42.351Z,12.10
2019-02-25T20:27:21.517Z,12.00
2019-02-25T20:30:04.969Z,12.00
2019-02-25T20:32:48.438Z,12.00
2019-02-25T20:35:34.553Z,12.00
2019-02-25T20:38:07.660Z,12.00
2019-02-25T20:40:53.092Z,12.00
2019-02-25T20:43:35.902Z,12.00
2019-02-25T20:46:14.782Z,12.00
2019-02-25T20:48:57.776Z,12.10
2019-02-25T20:51:39.116Z,12.00
2019-02-25T20:54:23.682Z,12.10
2019-02-25T20:57:12.096Z,12.00
2019-02-25T20:59:55.419Z,12.10
2019-02-25T21:02:35.295Z,12.10
2019-02-25T21:05:16.921Z,12.00
2019-02-25T21:08:02.813Z,12.10
2019-02-25T21:10:49.622Z,12.00
2019-02-25T21:13:33.154Z,12.00
2019-02-25T21:16:12.307Z,11.90
2019-02-25T21:18:55.751Z,12.00
2019-02-25T21:21:38.959Z,12.00
2019-02-25T21:24:21.423Z,12.00
2019-02-25T21:27:03.765Z,12.00
2019-02-25T21:29:45.667Z,11.90
2019-02-25T21:32:28.167Z,12.00
2019-02-25T21:35:14.016Z,11.90
2019-02-25T21:37:55.079Z,12.00
2019-02-25T21:40:36.190Z,12.00
2019-02-25T21:43:23.521Z,11.90
2019-02-25T21:46:05.238Z,12.00
2019-02-25T21:48:44.944Z,12.00
2019-02-25T21:51:28.084Z,11.90
2019-02-25T21:54:08.996Z,11.90
2019-02-25T21:56:50.375Z,11.90
2019-02-25T21:59:32.282Z,11.90
2019-02-25T22:02:14.478Z,11.90
2019-02-25T22:04:57.002Z,11.80
2019-02-25T22:07:39.005Z,11.90
2019-02-25T22:10:23.254Z,11.90
2019-02-25T22:13:08.818Z,11.80
2019-02-25T22:15:45.390Z,11.80
2019-02-25T22:18:29.550Z,11.80
2019-02-25T22:21:12.237Z,11.90
2019-02-25T22:23:56.154Z,11.90
2019-02-25T22:26:37.670Z,11.90
2019-02-25T22:29:19.061Z,11.90
2019-02-25T22:31:59.657Z,11.90
2019-02-25T22:34:43.680Z,11.90
2019-02-25T22:37:24.427Z,11.90
2019-02-25T22:40:07.874Z,11.90
2019-02-25T22:42:47.977Z,11.90
2019-02-25T22:45:27.682Z,11.90
2019-02-25T22:48:13.907Z,11.90
2019-02-25T22:50:55.311Z,11.90
2019-02-25T22:53:36.377Z,11.90
2019-02-25T22:56:21.603Z,11.90
2019-02-25T22:59:02.858Z,11.90
2019-02-25T23:01:42.890Z,11.90
2019-02-25T23:04:26.346Z,11.80
2019-02-25T23:07:09.029Z,11.90
2019-02-25T23:09:52.128Z,11.90
2019-02-25T23:12:33.005Z,11.90
2019-02-25T23:15:13.317Z,11.90
2019-02-25T23:18:04.869Z,12.00
2019-02-25T23:20:39.263Z,12.00
2019-02-25T23:23:18.593Z,12.00
2019-02-25T23:25:59.021Z,12.00
2019-02-25T23:28:42.415Z,12.00
2019-02-25T23:31:29.572Z,11.90
2019-02-25T23:34:12.287Z,12.00
2019-02-25T23:36:56.176Z,12.10
2019-02-25T23:39:38.264Z,12.10
2019-02-25T23:42:20.578Z,12.10
2019-02-25T23:45:01.979Z,12.10
2019-02-25T23:47:44.113Z,12.10
2019-02-25T23:50:27.278Z,12.30
2019-02-25T23:53:06.085Z,12.20
2019-02-25T23:55:50.068Z,12.20
2019-02-25T23:58:32.432Z,12.30
